createdAt,value
2018-08-10T00:00:03.217Z,68.60
2018-08-10T00:02:31.595Z,51.47
2018-08-10T00:04:59.930Z,48.33
2018-08-10T00:07:28.256Z,45.43
2018-08-10T00:09:56.595Z,46.77
2018-08-10T00:12:25.019Z,41.17
2018-08-10T00:14:53.339Z,39.37
2018-08-10T00:17:21.716Z,38.47
2018-08-10T00:19:50.059Z,37.50
2018-08-10T00:22:18.365Z,35.97
2018-08-10T00:24:46.726Z,35.73
2018-08-10T00:27:15.067Z,34.57
2018-08-10T00:29:43.458Z,32.97
2018-08-10T00:32:11.746Z,32.40
2018-08-10T00:34:40.070Z,32.30
2018-08-10T00:37:08.376Z,29.57
2018-08-10T00:39:36.670Z,30.70
2018-08-10T00:42:05.065Z,28.57
2018-08-10T00:44:33.395Z,36.93
2018-08-10T00:47:01.706Z,36.53
2018-08-10T00:49:30.013Z,54.17
2018-08-10T00:51:58.347Z,46.33
2018-08-10T00:54:26.640Z,40.83
2018-08-10T00:56:54.911Z,38.20
2018-08-10T00:59:23.305Z,35.87
2018-08-10T01:01:51.607Z,37.60
2018-08-10T01:04:20.200Z,29.33
2018-08-10T01:06:48.476Z,32.97
2018-08-10T01:09:16.797Z,34.60
2018-08-10T01:11:45.085Z,34.90
2018-08-10T01:14:13.409Z,31.63
2018-08-10T01:16:41.691Z,34.60
2018-08-10T01:19:10.043Z,35.40
2018-08-10T01:21:38.318Z,39.00
2018-08-10T01:24:06.607Z,37.50
2018-08-10T01:26:34.903Z,35.17
2018-08-10T01:29:03.308Z,34.70
2018-08-10T01:31:31.525Z,31.57
2018-08-10T01:33:59.837Z,32.40
2018-08-10T01:36:28.159Z,28.30
2018-08-10T01:38:56.428Z,29.27
2018-08-10T01:41:24.744Z,25.83
2018-08-10T01:43:53.100Z,24.67
2018-08-10T01:46:21.435Z,28.73
2018-08-10T01:48:49.845Z,25.33
2018-08-10T01:51:18.156Z,25.03
2018-08-10T01:53:46.433Z,23.73
2018-08-10T01:56:14.749Z,24.83
2018-08-10T01:58:43.031Z,24.40
2018-08-10T02:01:11.361Z,21.50
2018-08-10T02:03:39.783Z,21.27
2018-08-10T02:06:08.064Z,21.60
2018-08-10T02:08:36.380Z,21.10
2018-08-10T02:11:04.741Z,20.90
2018-08-10T02:13:33.069Z,20.53
2018-08-10T02:16:01.395Z,20.50
2018-08-10T02:18:29.700Z,20.73
2018-08-10T02:20:58.041Z,18.10
2018-08-10T02:23:26.426Z,15.20
2018-08-10T02:25:54.812Z,15.00
2018-08-10T02:28:23.146Z,15.10
2018-08-10T02:30:51.528Z,15.13
2018-08-10T02:33:19.828Z,14.43
2018-08-10T02:35:48.196Z,13.93
2018-08-10T02:38:16.596Z,13.20
2018-08-10T02:40:44.874Z,14.40
2018-08-10T02:43:13.239Z,14.13
2018-08-10T02:45:41.515Z,11.80
2018-08-10T02:48:09.818Z,12.23
2018-08-10T02:50:38.182Z,11.37
2018-08-10T02:53:06.518Z,11.70
2018-08-10T02:55:34.815Z,10.20
2018-08-10T02:58:03.133Z,11.03
2018-08-10T03:00:31.503Z,10.47
2018-08-10T03:02:59.810Z,10.37
2018-08-10T03:05:28.155Z,9.87
2018-08-10T03:07:56.458Z,8.93
2018-08-10T03:10:24.744Z,10.53
2018-08-10T03:12:53.140Z,9.43
2018-08-10T03:15:21.489Z,8.87
2018-08-10T03:17:49.807Z,8.90
2018-08-10T03:20:18.127Z,9.10
2018-08-10T03:22:46.438Z,8.60
2018-08-10T03:25:15.347Z,9.60
2018-08-10T03:27:43.717Z,7.73
2018-08-10T03:30:12.892Z,7.63
2018-08-10T03:32:41.229Z,8.40
2018-08-10T03:35:09.528Z,7.93
2018-08-10T03:37:38.426Z,7.03
2018-08-10T03:40:08.931Z,6.70
2018-08-10T03:42:37.210Z,5.90
2018-08-10T03:45:05.871Z,6.43
2018-08-10T03:47:34.166Z,5.77
2018-08-10T03:50:02.573Z,5.60
2018-08-10T03:52:30.928Z,5.60
2018-08-10T03:54:59.241Z,5.07
2018-08-10T03:57:27.613Z,4.60
2018-08-10T03:59:56.912Z,4.83
2018-08-10T04:02:25.178Z,5.10
2018-08-10T04:04:53.514Z,5.40
2018-08-10T04:07:21.774Z,4.50
2018-08-10T04:09:50.105Z,4.63
2018-08-10T04:12:18.391Z,4.40
2018-08-10T04:14:46.671Z,4.33
2018-08-10T04:17:24.698Z,4.50
2018-08-10T04:19:53.962Z,4.00
2018-08-10T04:22:22.886Z,4.50
2018-08-10T04:24:51.678Z,3.93
2018-08-10T04:27:20.247Z,3.60
2018-08-10T04:29:48.943Z,3.83
2018-08-10T04:32:17.219Z,3.23
2018-08-10T04:34:45.541Z,3.73
2018-08-10T04:37:13.848Z,3.30
2018-08-10T04:39:42.139Z,3.30
2018-08-10T04:42:10.474Z,2.77
2018-08-10T04:44:38.748Z,3.20
2018-08-10T04:47:07.087Z,3.13
2018-08-10T04:49:35.430Z,2.77
2018-08-10T04:52:03.715Z,3.27
2018-08-10T04:54:32.085Z,3.07
2018-08-10T04:57:00.470Z,2.90
2018-08-10T04:59:28.756Z,2.57
2018-08-10T05:01:57.099Z,2.57
2018-08-10T05:04:25.423Z,2.80
2018-08-10T05:06:53.946Z,3.30
2018-08-10T05:09:22.241Z,2.60
2018-08-10T05:11:50.502Z,2.67
2018-08-10T05:14:18.802Z,2.53
2018-08-10T05:16:47.160Z,2.40
2018-08-10T05:19:15.431Z,2.50
2018-08-10T05:21:43.774Z,2.17
2018-08-10T05:24:12.097Z,2.10
2018-08-10T05:26:40.384Z,2.13
2018-08-10T05:29:08.699Z,2.40
2018-08-10T05:31:37.065Z,2.80
2018-08-10T05:34:05.390Z,2.10
2018-08-10T05:36:33.758Z,2.20
2018-08-10T05:39:02.124Z,2.20
2018-08-10T05:41:30.503Z,2.40
2018-08-10T05:43:58.835Z,2.33
2018-08-10T05:46:27.142Z,1.93
2018-08-10T05:48:55.454Z,2.40
2018-08-10T05:51:23.768Z,2.20
2018-08-10T05:53:52.902Z,2.23
2018-08-10T05:56:21.202Z,2.40
2018-08-10T05:58:49.610Z,2.00
2018-08-10T06:01:18.002Z,2.40
2018-08-10T06:03:46.352Z,2.20
2018-08-10T06:06:14.634Z,2.10
2018-08-10T06:08:42.991Z,5.93
2018-08-10T06:11:11.289Z,43.43
2018-08-10T06:13:39.642Z,45.73
2018-08-10T06:16:07.946Z,42.73
2018-08-10T06:18:36.284Z,39.27
2018-08-10T06:21:07.566Z,38.10
2018-08-10T06:23:35.894Z,37.70
2018-08-10T06:26:04.294Z,38.77
2018-08-10T06:28:32.808Z,53.53
2018-08-10T06:31:01.538Z,61.03
2018-08-10T06:33:31.019Z,64.93
2018-08-10T06:35:59.857Z,65.57
2018-08-10T06:38:28.162Z,66.23
2018-08-10T06:40:56.620Z,68.13
2018-08-10T06:43:25.503Z,65.77
2018-08-10T06:45:53.802Z,66.13
2018-08-10T06:48:22.841Z,65.20
2018-08-10T06:50:52.299Z,63.87
2018-08-10T06:53:20.822Z,62.80
2018-08-10T06:55:49.347Z,60.87
2018-08-10T06:58:17.660Z,81.50
2018-08-10T07:00:46.036Z,110.13
2018-08-10T07:03:14.508Z,102.03
2018-08-10T07:05:43.010Z,116.53
2018-08-10T07:08:12.019Z,116.27
2018-08-10T07:10:40.327Z,113.00
2018-08-10T07:13:09.348Z,102.67
2018-08-10T07:15:37.762Z,94.23
2018-08-10T07:18:06.058Z,96.77
2018-08-10T07:20:35.334Z,93.70
2018-08-10T07:23:03.878Z,94.23
2018-08-10T07:25:32.279Z,86.17
2018-08-10T07:28:00.677Z,89.30
2018-08-10T07:30:28.938Z,90.03
2018-08-10T07:32:57.279Z,101.03
2018-08-10T07:35:25.555Z,105.67
2018-08-10T07:37:53.865Z,114.37
2018-08-10T07:40:22.172Z,152.77
2018-08-10T07:42:50.463Z,138.30
2018-08-10T07:45:18.742Z,139.07
2018-08-10T07:47:46.998Z,129.07
2018-08-10T07:50:15.315Z,113.13
2018-08-10T07:52:43.582Z,109.83
2018-08-10T07:55:11.912Z,104.50
2018-08-10T07:57:40.354Z,98.37
2018-08-10T08:00:09.019Z,92.43
2018-08-10T08:02:38.090Z,98.70
2018-08-10T08:05:06.739Z,87.87
2018-08-10T08:07:34.994Z,84.77
2018-08-10T08:10:03.362Z,103.40
2018-08-10T08:12:31.619Z,89.37
2018-08-10T08:14:59.963Z,90.80
2018-08-10T08:17:28.237Z,139.97
2018-08-10T08:19:56.682Z,95.63
2018-08-10T08:22:24.967Z,85.33
2018-08-10T08:24:53.268Z,79.87
2018-08-10T08:27:21.668Z,73.47
2018-08-10T08:29:50.012Z,71.03
2018-08-10T08:32:18.316Z,63.87
2018-08-10T08:34:46.650Z,79.70
2018-08-10T08:37:14.956Z,89.53
2018-08-10T08:39:56.315Z,98.77
2018-08-10T08:42:24.573Z,75.90
2018-08-10T08:46:07.954Z,89.13
2018-08-10T08:48:37.703Z,64.83
2018-08-10T08:51:08.748Z,66.27
2018-08-10T08:53:37.089Z,62.43
2018-08-10T08:56:06.723Z,60.27
2018-08-10T08:58:35.741Z,59.93
2018-08-10T09:01:04.699Z,57.87
2018-08-10T09:03:44.615Z,57.73
2018-08-10T09:06:12.908Z,57.30
2018-08-10T09:08:54.655Z,57.17
2018-08-10T09:11:22.996Z,54.27
2018-08-10T09:15:07.203Z,91.60
2018-08-10T09:17:35.587Z,98.90
2018-08-10T09:20:04.821Z,91.97
2018-08-10T09:22:33.175Z,76.73
2018-08-10T09:25:01.479Z,74.03
2018-08-10T09:27:29.770Z,74.43
2018-08-10T09:29:58.051Z,66.77
2018-08-10T09:32:26.382Z,66.77
2018-08-10T09:34:54.689Z,65.60
2018-08-10T09:37:23.030Z,64.80
2018-08-10T09:39:51.333Z,80.57
2018-08-10T09:42:19.751Z,101.43
2018-08-10T09:44:48.026Z,95.17
2018-08-10T09:47:16.315Z,74.57
2018-08-10T09:49:46.920Z,64.67
2018-08-10T09:52:15.189Z,33.57
2018-08-10T09:55:36.115Z,27.53
2018-08-10T09:58:09.016Z,19.63
2018-08-10T10:00:42.715Z,14.67
2018-08-10T10:03:16.608Z,7.30
2018-08-10T10:05:45.320Z,6.07
2018-08-10T10:08:13.872Z,3.23
2018-08-10T10:10:42.291Z,2.37
2018-08-10T10:13:10.559Z,2.00
2018-08-10T10:15:38.863Z,1.50
2018-08-10T10:18:08.816Z,1.13
2018-08-10T10:20:37.155Z,1.30
2018-08-10T10:23:05.776Z,1.13
2018-08-10T10:25:34.228Z,1.30
2018-08-10T10:28:02.504Z,1.13
2018-08-10T10:30:30.943Z,1.20
2018-08-10T10:32:59.319Z,2.50
2018-08-10T10:35:27.668Z,2.53
2018-08-10T10:37:55.964Z,1.90
2018-08-10T10:40:24.317Z,1.80
2018-08-10T10:42:52.620Z,1.30
2018-08-10T10:45:20.947Z,1.70
2018-08-10T10:47:49.399Z,1.83
2018-08-10T10:50:18.580Z,1.10
2018-08-10T10:52:46.856Z,2.53
2018-08-10T10:55:15.238Z,1.60
2018-08-10T10:57:44.149Z,2.77
2018-08-10T11:00:15.198Z,2.00
2018-08-10T11:02:43.754Z,1.93
2018-08-10T11:05:12.058Z,1.40
2018-08-10T11:07:40.399Z,1.20
2018-08-10T11:10:10.335Z,1.00
2018-08-10T11:12:39.002Z,0.90
2018-08-10T11:15:08.398Z,1.10
2018-08-10T11:17:36.775Z,2.63
2018-08-10T11:20:06.074Z,3.57
2018-08-10T11:22:34.366Z,3.23
2018-08-10T11:25:02.722Z,2.47
2018-08-10T11:27:31.102Z,1.80
2018-08-10T11:29:59.412Z,1.30
2018-08-10T11:32:27.740Z,1.20
2018-08-10T11:34:56.023Z,1.10
2018-08-10T11:37:24.399Z,1.30
2018-08-10T11:39:52.671Z,1.40
2018-08-10T11:42:21.171Z,1.20
2018-08-10T11:44:49.505Z,1.50
2018-08-10T11:47:17.765Z,1.20
2018-08-10T11:49:46.104Z,1.57
2018-08-10T11:52:14.374Z,1.70
2018-08-10T11:54:42.709Z,1.73
2018-08-10T11:57:10.994Z,1.80
2018-08-10T11:59:39.468Z,1.27
2018-08-10T12:02:07.956Z,1.40
2018-08-10T12:04:36.250Z,1.07
2018-08-10T12:07:04.774Z,1.10
2018-08-10T12:09:33.057Z,0.97
2018-08-10T12:12:01.352Z,1.50
2018-08-10T12:14:29.634Z,1.00
2018-08-10T12:16:57.921Z,0.93
2018-08-10T12:19:26.196Z,1.20
2018-08-10T12:21:54.459Z,1.13
2018-08-10T12:24:22.792Z,1.50
2018-08-10T12:26:51.073Z,1.97
2018-08-10T12:29:19.382Z,1.43
2018-08-10T12:31:47.695Z,1.80
2018-08-10T12:34:16.001Z,1.50
2018-08-10T12:36:44.981Z,1.40
2018-08-10T12:39:14.379Z,1.17
2018-08-10T12:41:42.810Z,1.33
2018-08-10T12:44:11.588Z,1.40
2018-08-10T12:46:39.987Z,1.70
2018-08-10T12:49:08.693Z,1.53
2018-08-10T12:51:41.001Z,2.70
2018-08-10T12:54:13.359Z,2.43
2018-08-10T12:56:41.681Z,1.70
2018-08-10T12:59:10.004Z,2.33
2018-08-10T13:01:38.354Z,1.60
2018-08-10T13:04:06.659Z,1.23
2018-08-10T13:06:34.932Z,1.40
2018-08-10T13:09:04.198Z,1.70
2018-08-10T13:11:32.515Z,1.20
2018-08-10T13:14:00.777Z,1.70
2018-08-10T13:16:29.163Z,1.30
2018-08-10T13:18:57.436Z,1.40
2018-08-10T13:21:25.738Z,1.43
2018-08-10T13:23:54.027Z,1.10
2018-08-10T13:26:22.393Z,1.03
2018-08-10T13:28:50.804Z,1.60
2018-08-10T13:31:19.135Z,3.90
2018-08-10T13:34:29.550Z,3.87
2018-08-10T13:36:57.988Z,3.00
2018-08-10T13:39:26.463Z,2.50
2018-08-10T13:41:54.907Z,2.10
2018-08-10T13:44:23.215Z,1.97
2018-08-10T13:46:51.531Z,1.97
2018-08-10T13:49:19.864Z,1.90
2018-08-10T13:51:48.193Z,1.63
2018-08-10T13:54:16.556Z,1.50
2018-08-10T13:56:44.859Z,1.50
2018-08-10T13:59:13.205Z,1.43
2018-08-10T14:01:41.598Z,1.50
2018-08-10T14:04:09.946Z,1.00
2018-08-10T14:06:38.325Z,1.00
2018-08-10T14:09:09.208Z,0.67
2018-08-10T14:11:37.760Z,0.70
2018-08-10T14:14:06.245Z,0.60
2018-08-10T14:16:35.090Z,0.70
2018-08-10T14:19:03.523Z,0.67
2018-08-10T14:21:31.849Z,0.83
2018-08-10T14:24:00.179Z,2.20
2018-08-10T14:26:30.589Z,3.57
2018-08-10T14:28:59.031Z,2.90
2018-08-10T14:31:27.567Z,2.50
2018-08-10T14:33:55.978Z,1.70
2018-08-10T14:36:24.502Z,1.40
2018-08-10T14:38:53.041Z,1.10
2018-08-10T14:41:21.445Z,1.40
2018-08-10T14:43:49.788Z,1.30
2018-08-10T14:46:18.189Z,1.30
2018-08-10T14:48:46.598Z,1.30
2018-08-10T14:51:14.951Z,2.23
2018-08-10T14:53:43.319Z,2.63
2018-08-10T14:56:11.646Z,1.80
2018-08-10T14:58:40.019Z,1.40
2018-08-10T15:01:08.522Z,1.87
2018-08-10T15:03:36.847Z,1.50
2018-08-10T15:06:05.200Z,1.20
2018-08-10T15:08:33.582Z,3.63
2018-08-10T15:11:01.922Z,15.93
2018-08-10T15:13:30.307Z,15.70
2018-08-10T15:15:58.790Z,16.27
2018-08-10T15:18:27.205Z,15.33
2018-08-10T15:20:55.592Z,11.37
2018-08-10T15:23:23.935Z,8.50
2018-08-10T15:25:52.276Z,7.10
2018-08-10T15:28:20.662Z,6.27
2018-08-10T15:30:49.046Z,4.53
2018-08-10T15:33:17.302Z,3.77
2018-08-10T15:35:45.659Z,6.23
2018-08-10T15:38:14.156Z,4.40
2018-08-10T15:40:42.439Z,3.73
2018-08-10T15:43:10.878Z,3.07
2018-08-10T15:45:39.223Z,2.80
2018-08-10T15:48:07.595Z,2.50
2018-08-10T15:50:36.095Z,2.67
2018-08-10T15:53:04.462Z,2.80
2018-08-10T15:55:33.010Z,3.10
2018-08-10T15:58:01.379Z,18.47
2018-08-10T16:00:29.719Z,19.77
2018-08-10T16:02:58.166Z,12.27
2018-08-10T16:05:26.532Z,13.83
2018-08-10T16:07:54.970Z,11.30
2018-08-10T16:10:23.319Z,7.10
2018-08-10T16:12:51.674Z,4.47
2018-08-10T16:15:19.991Z,3.50
2018-08-10T16:17:48.627Z,2.83
2018-08-10T16:20:19.518Z,2.60
2018-08-10T16:22:47.852Z,2.33
2018-08-10T16:25:16.196Z,2.80
2018-08-10T16:27:45.165Z,3.97
2018-08-10T16:30:15.041Z,3.60
2018-08-10T16:32:44.206Z,3.40
2018-08-10T16:35:13.559Z,2.93
2018-08-10T16:37:43.233Z,3.20
2018-08-10T16:40:13.299Z,2.80
2018-08-10T16:42:42.149Z,2.37
2018-08-10T16:45:10.936Z,2.30
2018-08-10T16:47:39.822Z,2.43
2018-08-10T16:50:11.462Z,2.17
2018-08-10T16:52:40.642Z,2.13
2018-08-10T16:55:11.215Z,1.60
2018-08-10T16:57:40.155Z,1.70
2018-08-10T17:00:10.013Z,1.67
2018-08-10T17:02:38.675Z,1.63
2018-08-10T17:05:08.018Z,1.50
2018-08-10T17:07:36.474Z,2.40
2018-08-10T17:10:06.200Z,1.87
2018-08-10T17:12:35.485Z,1.70
2018-08-10T17:15:05.757Z,1.60
2018-08-10T17:17:34.186Z,1.73
2018-08-10T17:20:02.548Z,1.70
2018-08-10T17:22:30.933Z,2.13
2018-08-10T17:24:59.345Z,1.60
2018-08-10T17:27:27.691Z,1.80
2018-08-10T17:29:56.106Z,1.80
2018-08-10T17:32:24.484Z,1.33
2018-08-10T17:34:52.883Z,2.00
2018-08-10T17:37:21.255Z,1.80
2018-08-10T17:39:49.617Z,2.03
2018-08-10T17:42:17.949Z,1.63
2018-08-10T17:44:46.990Z,1.57
2018-08-10T17:47:15.809Z,1.87
2018-08-10T17:49:44.487Z,1.90
2018-08-10T17:52:13.151Z,1.73
2018-08-10T17:54:41.579Z,1.60
2018-08-10T17:57:10.384Z,1.83
2018-08-10T17:59:38.765Z,1.90
2018-08-10T18:02:07.292Z,1.97
2018-08-10T18:04:35.664Z,1.43
2018-08-10T18:07:04.538Z,1.60
2018-08-10T18:09:32.894Z,1.30
2018-08-10T18:12:01.275Z,1.20
2018-08-10T18:14:29.636Z,1.20
2018-08-10T18:16:58.270Z,1.13
2018-08-10T18:19:26.588Z,1.17
2018-08-10T18:21:55.217Z,1.20
2018-08-10T18:24:23.978Z,1.03
2018-08-10T18:26:52.942Z,0.90
2018-08-10T18:29:21.472Z,1.10
2018-08-10T18:31:50.095Z,1.10
2018-08-10T18:34:18.590Z,1.23
2018-08-10T18:36:47.229Z,1.20
2018-08-10T18:39:15.956Z,1.07
2018-08-10T18:41:45.352Z,1.33
2018-08-10T18:44:14.067Z,0.97
2018-08-10T18:46:42.458Z,1.13
2018-08-10T18:49:10.790Z,1.53
2018-08-10T18:51:40.048Z,1.20
2018-08-10T18:54:08.453Z,1.17
2018-08-10T18:56:37.280Z,1.13
2018-08-10T18:59:06.063Z,1.43
2018-08-10T19:01:34.749Z,1.40
2018-08-10T19:04:03.048Z,1.40
2018-08-10T19:06:31.597Z,1.40
2018-08-10T19:09:00.688Z,1.50
2018-08-10T19:24:29.081Z,1.13
2018-08-10T19:26:57.684Z,1.83
2018-08-10T19:29:26.060Z,2.97
2018-08-10T19:31:54.716Z,4.37
2018-08-10T19:34:23.141Z,4.80
2018-08-10T19:36:51.533Z,4.00
2018-08-10T19:39:20.321Z,3.10
2018-08-10T19:41:49.016Z,2.70
2018-08-10T19:44:17.389Z,2.97
2018-08-10T19:46:45.799Z,14.33
2018-08-10T19:49:14.405Z,31.53
2018-08-10T19:51:42.802Z,35.40
2018-08-10T19:54:11.246Z,30.93
2018-08-10T19:56:39.583Z,26.53
2018-08-10T19:59:08.029Z,26.10
2018-08-10T20:01:36.469Z,26.20
2018-08-10T20:04:05.071Z,23.77
2018-08-10T20:06:33.510Z,22.90
2018-08-10T20:09:02.611Z,23.23
2018-08-10T20:11:31.114Z,22.77
2018-08-10T20:13:59.894Z,22.73
2018-08-10T20:16:28.301Z,19.97
2018-08-10T20:18:56.741Z,26.40
2018-08-10T20:21:25.317Z,30.27
2018-08-10T20:23:53.753Z,33.20
2018-08-10T20:26:22.241Z,29.10
2018-08-10T20:28:51.180Z,29.00
2018-08-10T20:31:20.156Z,28.90
2018-08-10T20:33:48.722Z,28.20
2018-08-10T20:36:17.187Z,24.97
2018-08-10T20:38:45.639Z,20.40
2018-08-10T20:41:14.072Z,19.93
2018-08-10T20:43:42.459Z,17.30
2018-08-10T20:46:10.884Z,16.30
2018-08-10T20:48:39.294Z,18.03
2018-08-10T20:51:07.705Z,15.20
2018-08-10T20:53:36.110Z,13.60
2018-08-10T20:56:04.625Z,9.80
2018-08-10T20:58:33.129Z,9.30
2018-08-10T21:01:01.478Z,13.63
2018-08-10T21:03:30.042Z,9.60
2018-08-10T21:05:58.534Z,11.03
2018-08-10T21:08:27.130Z,9.90
2018-08-10T21:10:55.531Z,10.27
2018-08-10T21:13:23.922Z,8.87
2018-08-10T21:15:52.335Z,6.13
2018-08-10T21:18:20.660Z,4.23
2018-08-10T21:20:48.990Z,3.60
2018-08-10T21:23:17.372Z,2.40
2018-08-10T21:25:45.731Z,2.07
2018-08-10T21:28:15.150Z,1.57
2018-08-10T21:30:43.444Z,1.43
2018-08-10T21:33:11.750Z,1.40
2018-08-10T21:35:40.094Z,0.93
2018-08-10T21:38:08.509Z,3.77
2018-08-10T21:40:36.820Z,4.37
2018-08-10T21:43:05.305Z,5.27
2018-08-10T21:45:33.649Z,6.47
2018-08-10T21:48:01.927Z,5.63
2018-08-10T21:50:30.184Z,3.87
2018-08-10T21:52:58.509Z,2.73
2018-08-10T21:55:26.833Z,11.20
2018-08-10T21:57:55.261Z,16.60
2018-08-10T22:01:08.622Z,14.37
2018-08-10T22:03:37.294Z,7.97
2018-08-10T22:06:05.863Z,6.97
2018-08-10T22:08:34.174Z,8.03
2018-08-10T22:11:02.491Z,8.77
2018-08-10T22:13:36.397Z,12.43
2018-08-10T22:16:10.158Z,15.57
2018-08-10T22:18:43.693Z,19.90
2018-08-10T22:21:12.004Z,22.13
2018-08-10T22:23:40.282Z,39.33
2018-08-10T22:26:08.644Z,36.53
2018-08-10T22:28:36.931Z,51.20
2018-08-10T22:31:05.275Z,51.40
2018-08-10T22:33:33.548Z,42.43
2018-08-10T22:36:01.842Z,37.07
2018-08-10T22:38:30.160Z,36.03
2018-08-10T22:40:58.442Z,35.97
2018-08-10T22:43:26.742Z,34.60
2018-08-10T22:45:55.043Z,34.83
2018-08-10T22:48:23.350Z,34.93
2018-08-10T22:50:51.682Z,32.93
2018-08-10T22:53:20.036Z,33.43
2018-08-10T22:55:48.423Z,32.40
2018-08-10T22:58:16.749Z,31.80
2018-08-10T23:00:45.085Z,32.63
2018-08-10T23:03:13.618Z,31.60
2018-08-10T23:05:41.852Z,30.60
2018-08-10T23:08:10.402Z,30.10
2018-08-10T23:10:38.695Z,29.53
2018-08-10T23:13:07.032Z,30.13
2018-08-10T23:15:35.371Z,28.00
2018-08-10T23:18:03.975Z,50.63
2018-08-10T23:20:32.434Z,52.10
2018-08-10T23:23:00.829Z,53.10
2018-08-10T23:25:29.328Z,54.63
2018-08-10T23:27:57.717Z,55.50
2018-08-10T23:30:26.091Z,63.43
2018-08-10T23:32:54.436Z,71.33
2018-08-10T23:35:22.767Z,73.33
2018-08-10T23:37:51.141Z,76.93
2018-08-10T23:40:19.457Z,69.93
2018-08-10T23:42:47.822Z,64.43
2018-08-10T23:45:16.220Z,73.53
2018-08-10T23:47:44.985Z,68.57
2018-08-10T23:50:16.403Z,68.47
2018-08-10T23:52:45.210Z,67.33
2018-08-10T23:55:18.651Z,58.03
2018-08-10T23:57:47.550Z,59.10
